This is the latest recevied weather packets stored in our database for station/object KB3KAV. If no packets are shown the sender has not sent any weather packets the latest 10 day(s).
| Time | Temp. | Humidity | Pressure | Rain* | Wind** | Luminosity | Snow |
|---|---|---|---|---|---|---|---|
| 1787753011 | 20° C | 78% | 1049.2 hPa | 0 mm | - | 428 W/m² | - |
| 1787752406 | 20° C | 80% | 1049.4 hPa | 0 mm | - | 384 W/m² | - |
| 1787751806 | 18.89° C | 83% | 1049.4 hPa | 0 mm | - | 345 W/m² | - |
| 1787751202 | 17.78° C | 85% | 1049.2 hPa | 0 mm | - | 347 W/m² | - |
| 1787750599 | 16.67° C | 89% | 1049.3 hPa | 0 mm | - | 354 W/m² | - |
| 1787750000 | 16.67° C | 89% | 1049.3 hPa | 0 mm | - | 144 W/m² | - |
| 1787749397 | 16.11° C | 89% | 1049.6 hPa | 0 mm | - | 409 W/m² | - |
| 1787748792 | 15.56° C | 90% | 1049.6 hPa | 0 mm | - | 177 W/m² | - |
| 1787748189 | 16.11° C | 85% | 1049.7 hPa | 0 mm | - | 120 W/m² | - |
| 1787747583 | 15.56° C | 86% | 1049.7 hPa | 0 mm | - | 92 W/m² | - |
| 1787746979 | 14.44° C | 88% | 1049.8 hPa | 0 mm | - | 74 W/m² | - |
| 1787746373 | 12.22° C | 93% | 1049.7 hPa | 0 mm | - | 64 W/m² | - |
| 1787745771 | 11.67° C | 94% | 1049.8 hPa | 0 mm | - | 39 W/m² | - |
| 1787745171 | 11.67° C | 95% | 1049.8 hPa | 0 mm | - | 39 W/m² | - |
| 1787744569 | 11.11° C | 95% | 1049.9 hPa | 0 mm | - | 42 W/m² | - |
| 1787743966 | 11.11° C | 95% | 1049.7 hPa | 0 mm | - | 47 W/m² | - |
| 1787743361 | 11.11° C | 95% | 1049.6 hPa | 0 mm | - | 47 W/m² | - |
| 1787742758 | 10° C | 95% | 1049.7 hPa | 0 mm | - | 40 W/m² | - |
| 1787742156 | 9.44° C | 95% | 1049.5 hPa | 0 mm | - | 28 W/m² | - |
| 1787741553 | 9.44° C | 95% | 1049.4 hPa | 0 mm | - | 20 W/m² | - |
| 1787740952 | 8.89° C | 95% | 1049.3 hPa | 0 mm | - | 12 W/m² | - |
| 1787740352 | 9.44° C | 95% | 1049.3 hPa | 0 mm | - | 4 W/m² | - |
| 1787739749 | 9.44° C | 95% | 1049.1 hPa | 0 mm | - | 1 W/m² | - |
| 1787739146 | 9.44° C | 95% | 1049.1 hPa | 0 mm | - | 0 W/m² | - |
| 1787738545 | 9.44° C | 95% | 1048.9 hPa | 0 mm | - | 0 W/m² | - |
* Rain latest hour (hover to see other rain measurements)
** Current wind speed in m/s (hover to see current wind gust speed)